Time,TemperatureF,DewpointF,PressureIn,WindDirection,WindDirectionDegrees,WindSpeedMPH,WindSpeedGustMPH,Humidity,HourlyPrecipIn,Conditions,Clouds,dailyrainin,SolarRadiationWatts/m^2,SoftwareType,DateUTC
2013-09-12 00:00:00,77.2,71.6,29.94,South,175,0.0,0.0,83,0.00,,,0.00,0,HR-IXPWINDi_r2_v1.2.,2013-09-12 04:00:00,
2013-09-12 00:01:00,77.2,71.6,29.94,South,175,0.0,0.0,83,0.00,,,0.00,0,HR-IXPWINDi_r2_v1.2.,2013-09-12 04:01:00,
2013-09-12 00:06:00,77.0,71.7,29.94,South,175,0.0,0.0,84,0.00,,,0.00,0,HR-IXPWINDi_r2_v1.2.,2013-09-12 04:06:00,
2013-09-12 00:11:00,76.8,71.5,29.94,South,175,0.0,0.0,84,0.00,,,0.00,0,HR-IXPWINDi_r2_v1.2.,2013-09-12 04:11:00,
2013-09-12 00:16:00,76.7,71.4,29.94,South,175,0.0,0.0,84,0.00,,,0.00,0,HR-IXPWINDi_r2_v1.2.,2013-09-12 04:16:00,
2013-09-12 00:22:00,76.5,71.6,29.93,South,175,0.0,0.0,85,0.00,,,0.00,0,HR-IXPWINDi_r2_v1.2.,2013-09-12 04:22:00,
2013-09-12 00:27:00,76.3,71.4,29.93,South,175,0.0,0.0,85,0.00,,,0.00,0,HR-IXPWINDi_r2_v1.2.,2013-09-12 04:27:00,
2013-09-12 00:32:00,76.1,70.9,29.93,South,175,0.0,0.0,84,0.00,,,0.00,0,HR-IXPWINDi_r2_v1.2.,2013-09-12 04:32:00,
2013-09-12 00:37:00,76.0,70.4,29.92,SSE,168,0.0,0.0,83,0.00,,,0.00,0,HR-IXPWINDi_r2_v1.2.,2013-09-12 04:37:00,
2013-09-12 00:42:00,76.0,70.8,29.92,South,175,0.0,0.0,84,0.00,,,0.00,0,HR-IXPWINDi_r2_v1.2.,2013-09-12 04:42:00,
2013-09-12 00:47:00,75.8,70.6,29.92,South,175,0.0,0.0,84,0.00,,,0.00,0,HR-IXPWINDi_r2_v1.2.,2013-09-12 04:47:00,
2013-09-12 00:53:00,75.8,70.6,29.92,South,175,0.0,0.0,84,0.00,,,0.00,0,HR-IXPWINDi_r2_v1.2.,2013-09-12 04:53:00,
2013-09-12 00:58:00,75.8,70.6,29.92,South,175,0.0,0.0,84,0.00,,,0.00,0,HR-IXPWINDi_r2_v1.2.,2013-09-12 04:58:00,
2013-09-12 01:03:00,75.6,70.7,29.92,South,175,0.0,0.0,85,0.00,,,0.00,0,HR-IXPWINDi_r2_v1.2.,2013-09-12 05:03:00,
2013-09-12 01:08:00,75.6,70.7,29.92,South,175,0.0,0.0,85,0.00,,,0.00,0,HR-IXPWINDi_r2_v1.2.,2013-09-12 05:08:00,
2013-09-12 01:13:00,75.4,70.5,29.92,South,175,0.0,0.0,85,0.00,,,0.00,0,HR-IXPWINDi_r2_v1.2.,2013-09-12 05:13:00,
2013-09-12 01:18:00,75.4,70.9,29.92,South,175,0.0,0.0,86,0.00,,,0.00,0,HR-IXPWINDi_r2_v1.2.,2013-09-12 05:18:00,
2013-09-12 01:24:00,75.3,70.8,29.91,South,175,0.0,0.0,86,0.00,,,0.00,0,HR-IXPWINDi_r2_v1.2.,2013-09-12 05:24:00,
2013-09-12 01:29:00,75.3,70.8,29.91,South,175,0.0,0.0,86,0.00,,,0.00,0,HR-IXPWINDi_r2_v1.2.,2013-09-12 05:29:00,
2013-09-12 01:34:00,75.1,70.9,29.90,South,175,0.0,0.0,87,0.00,,,0.00,0,HR-IXPWINDi_r2_v1.2.,2013-09-12 05:34:00,
2013-09-12 01:39:00,75.1,70.9,29.90,South,175,0.0,0.0,87,0.00,,,0.00,0,HR-IXPWINDi_r2_v1.2.,2013-09-12 05:39:00,
2013-09-12 01:44:00,74.9,70.7,29.90,South,175,0.0,0.0,87,0.00,,,0.00,0,HR-IXPWINDi_r2_v1.2.,2013-09-12 05:44:00,
2013-09-12 01:49:00,74.9,70.7,29.90,South,175,0.0,0.0,87,0.00,,,0.00,0,HR-IXPWINDi_r2_v1.2.,2013-09-12 05:49:00,
2013-09-12 01:54:00,74.7,70.8,29.90,South,175,0.0,0.0,88,0.00,,,0.00,0,HR-IXPWINDi_r2_v1.2.,2013-09-12 05:54:00,
2013-09-12 01:59:00,74.7,70.8,29.90,South,175,0.0,0.0,88,0.00,,,0.00,0,HR-IXPWINDi_r2_v1.2.,2013-09-12 05:59:00,
2013-09-12 02:04:00,74.6,70.8,29.90,South,175,0.0,0.0,88,0.00,,,0.00,0,HR-IXPWINDi_r2_v1.2.,2013-09-12 06:04:00,
2013-09-12 02:10:00,74.6,70.8,29.90,South,175,0.0,0.0,88,0.00,,,0.00,0,HR-IXPWINDi_r2_v1.2.,2013-09-12 06:10:00,
2013-09-12 02:15:00,74.6,70.8,29.90,South,175,0.0,0.0,88,0.00,,,0.00,0,HR-IXPWINDi_r2_v1.2.,2013-09-12 06:15:00,
2013-09-12 02:20:00,74.6,70.8,29.89,South,175,0.0,0.0,88,0.00,,,0.00,0,HR-IXPWINDi_r2_v1.2.,2013-09-12 06:20:00,
2013-09-12 02:25:00,74.4,70.6,29.89,South,175,0.0,0.0,88,0.00,,,0.00,0,HR-IXPWINDi_r2_v1.2.,2013-09-12 06:25:00,
2013-09-12 02:30:00,74.4,70.9,29.89,South,175,0.0,0.0,89,0.00,,,0.00,0,HR-IXPWINDi_r2_v1.2.,2013-09-12 06:30:00,
2013-09-12 02:35:00,74.4,70.9,29.89,South,175,0.0,0.0,89,0.00,,,0.00,0,HR-IXPWINDi_r2_v1.2.,2013-09-12 06:35:00,
2013-09-12 02:41:00,74.2,70.4,29.89,South,175,0.0,0.0,88,0.00,,,0.00,0,HR-IXPWINDi_r2_v1.2.,2013-09-12 06:41:00,
2013-09-12 02:46:00,74.2,70.7,29.89,South,175,0.0,0.0,89,0.00,,,0.00,0,HR-IXPWINDi_r2_v1.2.,2013-09-12 06:46:00,
2013-09-12 02:51:00,74.2,70.7,29.89,South,175,0.0,0.0,89,0.00,,,0.00,0,HR-IXPWINDi_r2_v1.2.,2013-09-12 06:51:00,
2013-09-12 02:56:00,74.0,70.5,29.89,South,175,0.0,0.0,89,0.00,,,0.00,0,HR-IXPWINDi_r2_v1.2.,2013-09-12 06:56:00,
2013-09-12 03:01:00,74.0,70.5,29.89,South,175,0.0,0.0,89,0.00,,,0.00,0,HR-IXPWINDi_r2_v1.2.,2013-09-12 07:01:00,
2013-09-12 03:06:00,74.0,70.5,29.89,South,175,0.0,0.0,89,0.00,,,0.00,0,HR-IXPWINDi_r2_v1.2.,2013-09-12 07:06:00,
2013-09-12 03:11:00,74.0,70.5,29.89,South,175,0.0,0.0,89,0.00,,,0.00,0,HR-IXPWINDi_r2_v1.2.,2013-09-12 07:11:00,
2013-09-12 03:17:00,74.0,70.5,29.89,South,175,0.0,0.0,89,0.00,,,0.00,0,HR-IXPWINDi_r2_v1.2.,2013-09-12 07:17:00,
2013-09-12 03:22:00,74.2,70.7,29.88,South,175,0.0,0.0,89,0.00,,,0.00,0,HR-IXPWINDi_r2_v1.2.,2013-09-12 07:22:00,
2013-09-12 03:27:00,74.0,70.5,29.88,South,175,0.0,0.0,89,0.00,,,0.00,0,HR-IXPWINDi_r2_v1.2.,2013-09-12 07:27:00,
2013-09-12 03:32:00,74.0,70.5,29.88,South,175,0.0,0.0,89,0.00,,,0.00,0,HR-IXPWINDi_r2_v1.2.,2013-09-12 07:32:00,
2013-09-12 03:37:00,74.0,70.8,29.88,South,175,0.0,0.0,90,0.00,,,0.00,0,HR-IXPWINDi_r2_v1.2.,2013-09-12 07:37:00,
2013-09-12 03:43:00,74.0,70.8,29.88,South,175,0.0,0.0,90,0.00,,,0.00,0,HR-IXPWINDi_r2_v1.2.,2013-09-12 07:43:00,
2013-09-12 03:48:00,73.9,70.7,29.88,South,175,0.0,0.0,90,0.00,,,0.00,0,HR-IXPWINDi_r2_v1.2.,2013-09-12 07:48:00,
2013-09-12 03:53:00,74.0,70.8,29.88,South,175,0.0,0.0,90,0.00,,,0.00,0,HR-IXPWINDi_r2_v1.2.,2013-09-12 07:53:00,
2013-09-12 03:58:00,74.2,71.3,29.88,South,175,0.0,0.0,91,0.00,,,0.00,0,HR-IXPWINDi_r2_v1.2.,2013-09-12 07:58:00,
2013-09-12 04:03:00,74.2,71.0,29.88,South,175,0.0,0.0,90,0.00,,,0.00,0,HR-IXPWINDi_r2_v1.2.,2013-09-12 08:03:00,
2013-09-12 04:08:00,74.2,71.0,29.88,South,175,0.0,0.0,90,0.00,,,0.00,0,HR-IXPWINDi_r2_v1.2.,2013-09-12 08:08:00,
2013-09-12 04:14:00,74.0,70.8,29.88,South,175,0.0,0.0,90,0.00,,,0.00,0,HR-IXPWINDi_r2_v1.2.,2013-09-12 08:14:00,
2013-09-12 04:19:00,74.0,71.1,29.88,South,175,0.0,0.0,91,0.00,,,0.00,0,HR-IXPWINDi_r2_v1.2.,2013-09-12 08:19:00,
2013-09-12 04:24:00,74.2,71.3,29.88,South,175,0.0,0.0,91,0.00,,,0.00,0,HR-IXPWINDi_r2_v1.2.,2013-09-12 08:24:00,
2013-09-12 04:29:00,74.4,71.5,29.88,South,175,0.0,0.0,91,0.00,,,0.00,0,HR-IXPWINDi_r2_v1.2.,2013-09-12 08:29:00,
2013-09-12 04:34:00,74.2,71.3,29.88,South,175,0.0,0.0,91,0.00,,,0.00,0,HR-IXPWINDi_r2_v1.2.,2013-09-12 08:34:00,
2013-09-12 04:39:00,74.2,71.3,29.88,South,175,0.0,0.0,91,0.00,,,0.00,0,HR-IXPWINDi_r2_v1.2.,2013-09-12 08:39:00,
2013-09-12 04:44:00,74.2,71.3,29.88,South,175,0.0,0.0,91,0.00,,,0.00,0,HR-IXPWINDi_r2_v1.2.,2013-09-12 08:44:00,
2013-09-12 04:50:00,74.2,71.3,29.88,South,175,0.0,0.0,91,0.00,,,0.00,0,HR-IXPWINDi_r2_v1.2.,2013-09-12 08:50:00,
2013-09-12 04:55:00,74.2,71.3,29.88,South,175,0.0,0.0,91,0.00,,,0.00,0,HR-IXPWINDi_r2_v1.2.,2013-09-12 08:55:00,
2013-09-12 05:00:00,74.2,71.3,29.88,South,175,0.0,0.0,91,0.00,,,0.00,0,HR-IXPWINDi_r2_v1.2.,2013-09-12 09:00:00,
2013-09-12 05:05:00,74.4,71.5,29.88,South,175,0.0,0.0,91,0.00,,,0.00,0,HR-IXPWINDi_r2_v1.2.,2013-09-12 09:05:00,
2013-09-12 05:10:00,74.6,72.1,29.88,South,175,0.0,0.0,92,0.00,,,0.00,0,HR-IXPWINDi_r2_v1.2.,2013-09-12 09:10:00,
2013-09-12 05:16:00,74.6,71.7,29.88,South,175,0.0,0.0,91,0.00,,,0.00,0,HR-IXPWINDi_r2_v1.2.,2013-09-12 09:16:00,
2013-09-12 05:21:00,74.6,71.7,29.88,South,175,0.0,0.0,91,0.00,,,0.00,0,HR-IXPWINDi_r2_v1.2.,2013-09-12 09:21:00,
2013-09-12 05:26:00,74.6,71.7,29.88,South,175,0.0,0.0,91,0.00,,,0.00,0,HR-IXPWINDi_r2_v1.2.,2013-09-12 09:26:00,
2013-09-12 05:31:00,74.6,71.7,29.88,South,175,0.0,0.0,91,0.00,,,0.00,0,HR-IXPWINDi_r2_v1.2.,2013-09-12 09:31:00,
2013-09-12 05:36:00,74.6,71.7,29.87,South,175,0.0,0.0,91,0.00,,,0.00,0,HR-IXPWINDi_r2_v1.2.,2013-09-12 09:36:00,
2013-09-12 05:42:00,74.4,71.5,29.87,South,175,0.0,0.0,91,0.00,,,0.00,0,HR-IXPWINDi_r2_v1.2.,2013-09-12 09:42:00,
2013-09-12 05:47:00,74.4,71.5,29.87,South,175,0.0,0.0,91,0.00,,,0.00,0,HR-IXPWINDi_r2_v1.2.,2013-09-12 09:47:00,
2013-09-12 05:52:00,74.4,71.5,29.88,South,175,0.0,0.0,91,0.00,,,0.00,0,HR-IXPWINDi_r2_v1.2.,2013-09-12 09:52:00,
2013-09-12 05:57:00,74.4,71.5,29.88,South,175,0.0,0.0,91,0.00,,,0.00,0,HR-IXPWINDi_r2_v1.2.,2013-09-12 09:57:00,
2013-09-12 06:02:00,74.4,71.5,29.88,South,175,0.0,0.0,91,0.00,,,0.00,0,HR-IXPWINDi_r2_v1.2.,2013-09-12 10:02:00,
2013-09-12 06:07:00,74.2,71.3,29.87,South,175,0.0,0.0,91,0.00,,,0.00,0,HR-IXPWINDi_r2_v1.2.,2013-09-12 10:07:00,
2013-09-12 06:13:00,74.2,71.7,29.87,South,175,0.0,0.0,92,0.00,,,0.00,0,HR-IXPWINDi_r2_v1.2.,2013-09-12 10:13:00,
2013-09-12 06:18:00,74.2,71.7,29.87,South,175,0.0,0.0,92,0.00,,,0.00,0,HR-IXPWINDi_r2_v1.2.,2013-09-12 10:18:00,
2013-09-12 06:23:00,74.2,71.7,29.87,South,175,0.0,0.0,92,0.00,,,0.00,0,HR-IXPWINDi_r2_v1.2.,2013-09-12 10:23:00,
2013-09-12 06:28:00,74.2,71.7,29.87,South,175,0.0,0.0,92,0.00,,,0.00,0,HR-IXPWINDi_r2_v1.2.,2013-09-12 10:28:00,
2013-09-12 06:34:00,74.2,71.7,29.87,South,175,0.0,0.0,92,0.00,,,0.00,0,HR-IXPWINDi_r2_v1.2.,2013-09-12 10:34:00,
2013-09-12 06:39:00,74.2,71.7,29.87,South,175,0.0,0.0,92,0.00,,,0.00,0,HR-IXPWINDi_r2_v1.2.,2013-09-12 10:39:00,
2013-09-12 06:44:00,74.2,71.7,29.87,South,175,0.0,0.0,92,0.00,,,0.00,0,HR-IXPWINDi_r2_v1.2.,2013-09-12 10:44:00,
2013-09-12 06:49:00,74.2,71.7,29.87,South,175,0.0,0.0,92,0.00,,,0.00,5,HR-IXPWINDi_r2_v1.2.,2013-09-12 10:49:00,
2013-09-12 06:54:00,74.2,71.7,29.87,South,175,0.0,0.0,92,0.00,,,0.00,9,HR-IXPWINDi_r2_v1.2.,2013-09-12 10:54:00,
2013-09-12 06:59:00,74.2,71.7,29.87,South,175,0.0,0.0,92,0.00,,,0.00,9,HR-IXPWINDi_r2_v1.2.,2013-09-12 10:59:00,
2013-09-12 07:05:00,74.4,71.9,29.88,South,175,0.0,0.0,92,0.00,,,0.00,33,HR-IXPWINDi_r2_v1.2.,2013-09-12 11:05:00,
2013-09-12 07:10:00,74.4,71.9,29.88,South,175,0.0,0.0,92,0.00,,,0.00,18,HR-IXPWINDi_r2_v1.2.,2013-09-12 11:10:00,
2013-09-12 07:15:00,74.4,71.9,29.88,South,175,0.0,0.0,92,0.00,,,0.00,14,HR-IXPWINDi_r2_v1.2.,2013-09-12 11:15:00,
2013-09-12 07:20:00,74.6,72.1,29.87,South,175,0.0,0.0,92,0.00,,,0.00,16,HR-IXPWINDi_r2_v1.2.,2013-09-12 11:20:00,
2013-09-12 07:26:00,74.6,72.1,29.87,South,175,0.0,0.0,92,0.00,,,0.00,21,HR-IXPWINDi_r2_v1.2.,2013-09-12 11:26:00,
2013-09-12 07:31:00,74.7,72.2,29.87,South,175,0.0,0.0,92,0.00,,,0.00,26,HR-IXPWINDi_r2_v1.2.,2013-09-12 11:31:00,
2013-09-12 07:36:00,74.9,72.4,29.87,South,175,0.0,0.0,92,0.00,,,0.00,26,HR-IXPWINDi_r2_v1.2.,2013-09-12 11:36:00,
2013-09-12 07:41:00,75.1,72.6,29.87,South,175,0.0,0.0,92,0.00,,,0.00,26,HR-IXPWINDi_r2_v1.2.,2013-09-12 11:41:00,
2013-09-12 07:47:00,75.4,72.5,29.87,South,175,0.0,0.0,91,0.00,,,0.00,19,HR-IXPWINDi_r2_v1.2.,2013-09-12 11:47:00,
2013-09-12 07:52:00,75.6,72.7,29.86,South,175,0.0,0.0,91,0.00,,,0.00,18,HR-IXPWINDi_r2_v1.2.,2013-09-12 11:52:00,
2013-09-12 07:57:00,75.8,72.6,29.86,South,175,0.0,0.0,90,0.00,,,0.00,32,HR-IXPWINDi_r2_v1.2.,2013-09-12 11:57:00,
2013-09-12 08:02:00,76.0,72.8,29.86,South,175,0.0,0.0,90,0.00,,,0.00,35,HR-IXPWINDi_r2_v1.2.,2013-09-12 12:02:00,
2013-09-12 08:08:00,76.1,72.9,29.86,South,175,0.0,1.0,90,0.00,,,0.00,37,HR-IXPWINDi_r2_v1.2.,2013-09-12 12:08:00,
2013-09-12 08:13:00,76.5,73.0,29.86,South,175,0.0,2.0,89,0.00,,,0.00,39,HR-IXPWINDi_r2_v1.2.,2013-09-12 12:13:00,
2013-09-12 08:18:00,76.7,72.5,29.86,South,174,2.0,2.0,87,0.00,,,0.00,42,HR-IXPWINDi_r2_v1.2.,2013-09-12 12:18:00,
2013-09-12 08:23:00,77.0,72.1,29.86,South,174,0.0,3.0,85,0.00,,,0.00,46,HR-IXPWINDi_r2_v1.2.,2013-09-12 12:23:00,
2013-09-12 08:28:00,77.2,71.9,29.86,South,171,0.0,3.0,84,0.00,,,0.00,48,HR-IXPWINDi_r2_v1.2.,2013-09-12 12:28:00,
2013-09-12 08:33:00,77.6,72.0,29.86,NE,37,0.0,3.0,83,0.00,,,0.00,53,HR-IXPWINDi_r2_v1.2.,2013-09-12 12:33:00,
2013-09-12 08:38:00,77.7,72.1,29.85,East,93,0.0,3.0,83,0.00,,,0.00,62,HR-IXPWINDi_r2_v1.2.,2013-09-12 12:38:00,
2013-09-12 08:44:00,77.9,71.9,29.85,ESE,123,3.0,6.0,82,0.00,,,0.00,74,HR-IXPWINDi_r2_v1.2.,2013-09-12 12:44:00,
2013-09-12 08:49:00,78.1,71.7,29.85,ESE,123,0.0,6.0,81,0.00,,,0.00,74,HR-IXPWINDi_r2_v1.2.,2013-09-12 12:49:00,
2013-09-12 08:54:00,78.3,71.9,29.85,ESE,123,0.0,6.0,81,0.00,,,0.00,84,HR-IXPWINDi_r2_v1.2.,2013-09-12 12:54:00,
2013-09-12 08:59:00,78.6,72.2,29.85,ESE,123,0.0,2.0,81,0.00,,,0.00,72,HR-IXPWINDi_r2_v1.2.,2013-09-12 12:59:00,
2013-09-12 09:04:00,78.6,71.9,29.84,ESE,123,0.0,3.0,80,0.00,,,0.00,58,HR-IXPWINDi_r2_v1.2.,2013-09-12 13:04:00,
2013-09-12 09:09:00,78.8,71.7,29.84,ESE,102,0.0,3.0,79,0.00,,,0.00,72,HR-IXPWINDi_r2_v1.2.,2013-09-12 13:09:00,
2013-09-12 09:15:00,79.0,71.9,29.84,ESE,102,0.0,3.0,79,0.00,,,0.00,81,HR-IXPWINDi_r2_v1.2.,2013-09-12 13:15:00,
2013-09-12 09:20:00,79.2,71.7,29.84,ESE,104,2.0,3.0,78,0.00,,,0.00,88,HR-IXPWINDi_r2_v1.2.,2013-09-12 13:20:00,
2013-09-12 09:25:00,79.2,71.7,29.84,ESE,112,2.0,5.0,78,0.00,,,0.00,95,HR-IXPWINDi_r2_v1.2.,2013-09-12 13:25:00,
2013-09-12 09:30:00,79.4,71.9,29.84,ESE,112,0.0,5.0,78,0.00,,,0.00,97,HR-IXPWINDi_r2_v1.2.,2013-09-12 13:30:00,
2013-09-12 09:35:00,79.6,71.7,29.84,ESE,113,0.0,5.0,77,0.00,,,0.00,139,HR-IXPWINDi_r2_v1.2.,2013-09-12 13:35:00,
2013-09-12 09:41:00,79.9,72.0,29.84,ESE,113,3.0,3.0,77,0.00,,,0.00,280,HR-IXPWINDi_r2_v1.2.,2013-09-12 13:41:00,
2013-09-12 09:46:00,80.1,71.8,29.84,ESE,113,1.0,5.0,76,0.00,,,0.00,301,HR-IXPWINDi_r2_v1.2.,2013-09-12 13:46:00,
2013-09-12 09:51:00,80.3,72.0,29.84,ESE,113,0.0,5.0,76,0.00,,,0.00,190,HR-IXPWINDi_r2_v1.2.,2013-09-12 13:51:00,
2013-09-12 09:56:00,80.5,71.8,29.84,ESE,113,0.0,3.0,75,0.00,,,0.00,183,HR-IXPWINDi_r2_v1.2.,2013-09-12 13:56:00,
2013-09-12 10:01:00,80.5,71.8,29.84,ESE,123,0.0,4.0,75,0.00,,,0.00,172,HR-IXPWINDi_r2_v1.2.,2013-09-12 14:01:00,
2013-09-12 10:06:00,80.7,71.6,29.83,WNW,288,2.0,4.0,74,0.00,,,0.00,167,HR-IXPWINDi_r2_v1.2.,2013-09-12 14:06:00,
2013-09-12 10:11:00,80.7,71.6,29.83,SE,143,0.0,3.0,74,0.00,,,0.00,120,HR-IXPWINDi_r2_v1.2.,2013-09-12 14:11:00,
2013-09-12 10:17:00,80.9,71.8,29.83,SE,143,0.0,3.0,74,0.00,,,0.00,106,HR-IXPWINDi_r2_v1.2.,2013-09-12 14:17:00,
2013-09-12 10:22:00,80.9,71.8,29.83,SE,143,0.0,0.0,74,0.00,,,0.00,134,HR-IXPWINDi_r2_v1.2.,2013-09-12 14:22:00,
2013-09-12 10:27:00,80.9,72.2,29.83,SE,143,0.0,0.0,75,0.00,,,0.00,116,HR-IXPWINDi_r2_v1.2.,2013-09-12 14:27:00,
2013-09-12 10:32:00,80.9,72.2,29.83,SE,143,2.0,2.0,75,0.00,,,0.00,151,HR-IXPWINDi_r2_v1.2.,2013-09-12 14:32:00,
2013-09-12 10:37:00,80.9,71.8,29.83,SSE,167,1.0,2.0,74,0.00,,,0.00,143,HR-IXPWINDi_r2_v1.2.,2013-09-12 14:37:00,
2013-09-12 10:42:00,80.7,72.0,29.83,SSE,148,0.0,2.0,75,0.00,,,0.00,153,HR-IXPWINDi_r2_v1.2.,2013-09-12 14:42:00,
2013-09-12 10:48:00,80.7,71.6,29.83,SE,144,0.0,2.0,74,0.00,,,0.00,185,HR-IXPWINDi_r2_v1.2.,2013-09-12 14:48:00,
2013-09-12 10:53:00,81.1,72.0,29.82,SE,144,2.0,2.0,74,0.00,,,0.00,199,HR-IXPWINDi_r2_v1.2.,2013-09-12 14:53:00,
2013-09-12 10:58:00,81.2,72.1,29.82,SE,144,3.0,3.0,74,0.00,,,0.00,169,HR-IXPWINDi_r2_v1.2.,2013-09-12 14:58:00,
2013-09-12 11:03:00,81.4,71.9,29.82,SE,141,0.0,3.0,73,0.00,,,0.00,183,HR-IXPWINDi_r2_v1.2.,2013-09-12 15:03:00,
2013-09-12 11:08:00,81.8,71.8,29.81,SE,141,0.0,3.0,72,0.00,,,0.00,195,HR-IXPWINDi_r2_v1.2.,2013-09-12 15:08:00,
2013-09-12 11:14:00,82.2,72.2,29.81,SE,141,0.0,3.0,72,0.00,,,0.00,169,HR-IXPWINDi_r2_v1.2.,2013-09-12 15:14:00,
2013-09-12 11:19:00,82.2,71.8,29.81,SE,141,0.0,3.0,71,0.00,,,0.00,197,HR-IXPWINDi_r2_v1.2.,2013-09-12 15:19:00,
2013-09-12 11:24:00,82.6,72.2,29.81,SE,141,2.0,3.0,71,0.00,,,0.00,197,HR-IXPWINDi_r2_v1.2.,2013-09-12 15:24:00,
2013-09-12 11:29:00,82.8,72.0,29.81,NE,55,1.0,3.0,70,0.00,,,0.00,194,HR-IXPWINDi_r2_v1.2.,2013-09-12 15:29:00,
2013-09-12 11:34:00,82.8,71.5,29.80,East,99,0.0,3.0,69,0.00,,,0.00,181,HR-IXPWINDi_r2_v1.2.,2013-09-12 15:34:00,
2013-09-12 11:39:00,83.0,71.7,29.80,East,99,0.0,3.0,69,0.00,,,0.00,164,HR-IXPWINDi_r2_v1.2.,2013-09-12 15:39:00,
2013-09-12 11:44:00,83.2,71.9,29.80,East,99,0.0,1.0,69,0.00,,,0.00,165,HR-IXPWINDi_r2_v1.2.,2013-09-12 15:44:00,
2013-09-12 11:49:00,83.2,71.5,29.80,East,99,0.0,3.0,68,0.00,,,0.00,179,HR-IXPWINDi_r2_v1.2.,2013-09-12 15:49:00,
2013-09-12 11:55:00,83.2,71.1,29.80,East,89,3.0,4.0,67,0.00,,,0.00,204,HR-IXPWINDi_r2_v1.2.,2013-09-12 15:55:00,
2013-09-12 12:00:00,83.6,71.0,29.80,ESE,107,3.0,4.0,66,0.00,,,0.00,155,HR-IXPWINDi_r2_v1.2.,2013-09-12 16:00:00,
2013-09-12 12:05:00,83.8,70.3,29.79,ESE,112,3.0,5.0,64,0.00,,,0.00,199,HR-IXPWINDi_r2_v1.2.,2013-09-12 16:05:00,
2013-09-12 12:10:00,84.1,70.1,29.79,SSW,195,6.0,6.0,63,0.00,,,0.00,238,HR-IXPWINDi_r2_v1.2.,2013-09-12 16:10:00,
2013-09-12 12:16:00,84.1,70.1,29.79,SE,140,1.0,6.0,63,0.00,,,0.00,236,HR-IXPWINDi_r2_v1.2.,2013-09-12 16:16:00,
2013-09-12 12:21:00,84.1,70.1,29.78,SE,140,0.0,6.0,63,0.00,,,0.00,202,HR-IXPWINDi_r2_v1.2.,2013-09-12 16:21:00,
2013-09-12 12:26:00,84.3,70.3,29.78,SE,137,1.0,6.0,63,0.00,,,0.00,273,HR-IXPWINDi_r2_v1.2.,2013-09-12 16:26:00,
2013-09-12 12:31:00,84.9,70.9,29.78,East,100,2.0,5.0,63,0.00,,,0.00,350,HR-IXPWINDi_r2_v1.2.,2013-09-12 16:31:00,
2013-09-12 12:36:00,85.5,69.5,29.77,SSE,154,3.0,5.0,59,0.00,,,0.00,767,HR-IXPWINDi_r2_v1.2.,2013-09-12 16:36:00,
2013-09-12 12:42:00,85.9,69.4,29.77,East,93,1.0,5.0,58,0.00,,,0.00,181,HR-IXPWINDi_r2_v1.2.,2013-09-12 16:42:00,
2013-09-12 12:47:00,85.5,69.0,29.77,ESE,114,3.0,6.0,58,0.00,,,0.00,171,HR-IXPWINDi_r2_v1.2.,2013-09-12 16:47:00,
2013-09-12 12:52:00,84.9,68.9,29.77,ESE,106,3.0,6.0,59,0.00,,,0.00,72,HR-IXPWINDi_r2_v1.2.,2013-09-12 16:52:00,
2013-09-12 12:57:00,84.5,69.0,29.77,East,99,0.0,5.0,60,0.00,,,0.00,37,HR-IXPWINDi_r2_v1.2.,2013-09-12 16:57:00,
2013-09-12 13:02:00,84.1,69.2,29.77,ENE,78,1.0,5.0,61,0.00,,,0.00,18,HR-IXPWINDi_r2_v1.2.,2013-09-12 17:02:00,
2013-09-12 13:07:00,84.0,69.5,29.78,NE,38,2.0,4.0,62,0.00,,,0.00,25,HR-IXPWINDi_r2_v1.2.,2013-09-12 17:07:00,
2013-09-12 13:12:00,83.6,69.6,29.78,East,82,1.0,5.0,63,0.00,,,0.00,18,HR-IXPWINDi_r2_v1.2.,2013-09-12 17:12:00,
2013-09-12 13:18:00,81.1,66.3,29.78,ESE,123,5.0,11.0,61,0.00,,,0.00,0,HR-IXPWINDi_r2_v1.2.,2013-09-12 17:18:00,
2013-09-12 13:23:00,77.6,65.7,29.79,ESE,113,4.0,11.0,67,0.00,,,0.00,0,HR-IXPWINDi_r2_v1.2.,2013-09-12 17:23:00,
2013-09-12 13:28:00,74.6,66.9,29.79,ESE,114,0.0,8.0,77,0.00,,,0.00,0,HR-IXPWINDi_r2_v1.2.,2013-09-12 17:28:00,
2013-09-12 13:33:00,73.3,66.7,29.79,ESE,114,0.0,6.0,80,0.00,,,0.00,0,HR-IXPWINDi_r2_v1.2.,2013-09-12 17:33:00,
2013-09-12 13:39:00,73.0,67.1,29.78,ESE,109,0.0,0.0,82,0.00,,,0.00,0,HR-IXPWINDi_r2_v1.2.,2013-09-12 17:39:00,
2013-09-12 13:44:00,72.8,67.3,29.78,ESE,114,0.0,0.0,83,0.00,,,0.00,0,HR-IXPWINDi_r2_v1.2.,2013-09-12 17:44:00,
2013-09-12 13:49:00,72.7,67.5,29.77,ESE,114,0.0,0.0,84,0.00,,,0.00,0,HR-IXPWINDi_r2_v1.2.,2013-09-12 17:49:00,
2013-09-12 13:54:00,72.5,67.7,29.77,ESE,114,0.0,0.0,85,0.00,,,0.00,5,HR-IXPWINDi_r2_v1.2.,2013-09-12 17:54:00,
2013-09-12 13:59:00,72.3,67.5,29.77,ESE,114,0.0,0.0,85,0.00,,,0.00,7,HR-IXPWINDi_r2_v1.2.,2013-09-12 17:59:00,
2013-09-12 14:05:00,72.1,67.6,29.77,ESE,114,0.0,0.0,86,0.00,,,0.00,11,HR-IXPWINDi_r2_v1.2.,2013-09-12 18:05:00,
2013-09-12 14:10:00,72.1,67.6,29.77,ESE,114,0.0,0.0,86,0.00,,,0.00,14,HR-IXPWINDi_r2_v1.2.,2013-09-12 18:10:00,
2013-09-12 14:15:00,72.1,68.3,29.77,ESE,114,0.0,0.0,88,0.00,,,0.00,21,HR-IXPWINDi_r2_v1.2.,2013-09-12 18:15:00,
2013-09-12 14:20:00,72.0,68.2,29.75,ESE,114,0.0,0.0,88,0.00,,,0.00,35,HR-IXPWINDi_r2_v1.2.,2013-09-12 18:20:00,
2013-09-12 14:25:00,72.0,68.5,29.75,ESE,114,0.0,0.0,89,0.00,,,0.00,86,HR-IXPWINDi_r2_v1.2.,2013-09-12 18:25:00,
2013-09-12 14:30:00,72.1,68.6,29.75,ESE,114,0.0,0.0,89,0.00,,,0.00,120,HR-IXPWINDi_r2_v1.2.,2013-09-12 18:30:00,
2013-09-12 14:35:00,72.3,68.8,29.75,ESE,114,0.0,0.0,89,0.00,,,0.00,137,HR-IXPWINDi_r2_v1.2.,2013-09-12 18:35:00,
2013-09-12 14:41:00,72.5,69.3,29.75,ESE,114,0.0,0.0,90,0.00,,,0.00,146,HR-IXPWINDi_r2_v1.2.,2013-09-12 18:41:00,
2013-09-12 14:46:00,73.0,69.8,29.75,ESE,114,0.0,0.0,90,0.00,,,0.00,157,HR-IXPWINDi_r2_v1.2.,2013-09-12 18:46:00,
2013-09-12 14:51:00,73.3,70.1,29.75,ESE,114,0.0,0.0,90,0.00,,,0.00,153,HR-IXPWINDi_r2_v1.2.,2013-09-12 18:51:00,
2013-09-12 14:56:00,73.7,70.5,29.75,ESE,114,0.0,0.0,90,0.00,,,0.00,204,HR-IXPWINDi_r2_v1.2.,2013-09-12 18:56:00,
2013-09-12 15:01:00,74.2,71.0,29.75,ESE,114,0.0,0.0,90,0.00,,,0.00,199,HR-IXPWINDi_r2_v1.2.,2013-09-12 19:01:00,
2013-09-12 15:07:00,74.6,71.1,29.73,ESE,114,0.0,0.0,89,0.00,,,0.00,225,HR-IXPWINDi_r2_v1.2.,2013-09-12 19:07:00,
2013-09-12 15:12:00,75.1,71.6,29.73,ESE,114,0.0,0.0,89,0.00,,,0.00,304,HR-IXPWINDi_r2_v1.2.,2013-09-12 19:12:00,
2013-09-12 15:17:00,75.4,71.5,29.73,ESE,114,0.0,0.0,88,0.00,,,0.00,225,HR-IXPWINDi_r2_v1.2.,2013-09-12 19:17:00,
2013-09-12 15:22:00,76.3,72.4,29.72,ESE,112,2.0,2.0,88,0.00,,,0.00,165,HR-IXPWINDi_r2_v1.2.,2013-09-12 19:22:00,
2013-09-12 15:28:00,76.8,72.2,29.72,ESE,112,0.0,2.0,86,0.00,,,0.00,199,HR-IXPWINDi_r2_v1.2.,2013-09-12 19:28:00,
2013-09-12 15:33:00,77.2,71.6,29.72,ENE,68,1.0,2.0,83,0.00,,,0.00,123,HR-IXPWINDi_r2_v1.2.,2013-09-12 19:33:00,
2013-09-12 15:38:00,77.4,71.4,29.71,ENE,68,0.0,2.0,82,0.00,,,0.00,91,HR-IXPWINDi_r2_v1.2.,2013-09-12 19:38:00,
2013-09-12 15:43:00,77.7,72.1,29.71,ENE,68,0.0,2.0,83,0.00,,,0.00,127,HR-IXPWINDi_r2_v1.2.,2013-09-12 19:43:00,
2013-09-12 15:48:00,77.9,71.9,29.71,ENE,68,0.0,0.0,82,0.00,,,0.00,114,HR-IXPWINDi_r2_v1.2.,2013-09-12 19:48:00,
2013-09-12 15:53:00,78.1,72.1,29.69,ENE,68,0.0,2.0,82,0.00,,,0.00,128,HR-IXPWINDi_r2_v1.2.,2013-09-12 19:53:00,
2013-09-12 15:59:00,78.1,71.7,29.69,North,354,0.0,2.0,81,0.00,,,0.00,317,HR-IXPWINDi_r2_v1.2.,2013-09-12 19:59:00,
2013-09-12 16:04:00,78.5,72.5,29.69,North,354,0.0,2.0,82,0.00,,,0.00,141,HR-IXPWINDi_r2_v1.2.,2013-09-12 20:04:00,
2013-09-12 16:09:00,78.8,72.8,29.68,North,354,0.0,0.0,82,0.00,,,0.00,137,HR-IXPWINDi_r2_v1.2.,2013-09-12 20:09:00,
2013-09-12 16:14:00,79.0,72.6,29.68,North,352,0.0,0.0,81,0.00,,,0.00,116,HR-IXPWINDi_r2_v1.2.,2013-09-12 20:14:00,
2013-09-12 16:19:00,79.2,72.8,29.68,North,350,0.0,1.0,81,0.00,,,0.00,107,HR-IXPWINDi_r2_v1.2.,2013-09-12 20:19:00,
2013-09-12 16:24:00,79.4,72.6,29.68,NNW,340,0.0,2.0,80,0.00,,,0.00,146,HR-IXPWINDi_r2_v1.2.,2013-09-12 20:24:00,
2013-09-12 16:29:00,79.8,72.7,29.68,NNW,335,0.0,2.0,79,0.00,,,0.00,111,HR-IXPWINDi_r2_v1.2.,2013-09-12 20:29:00,
2013-09-12 16:35:00,79.9,72.8,29.68,NNW,335,1.0,2.0,79,0.00,,,0.00,111,HR-IXPWINDi_r2_v1.2.,2013-09-12 20:35:00,
2013-09-12 16:40:00,80.1,72.2,29.68,NNW,332,0.0,2.0,77,0.00,,,0.00,113,HR-IXPWINDi_r2_v1.2.,2013-09-12 20:40:00,
2013-09-12 16:45:00,80.5,72.6,29.68,WSW,258,0.0,1.0,77,0.00,,,0.00,84,HR-IXPWINDi_r2_v1.2.,2013-09-12 20:45:00,
2013-09-12 16:51:00,80.7,73.1,29.68,West,260,0.0,1.0,78,0.00,,,0.00,102,HR-IXPWINDi_r2_v1.2.,2013-09-12 20:51:00,
2013-09-12 16:56:00,80.9,73.3,29.68,West,260,0.0,0.0,78,0.00,,,0.00,125,HR-IXPWINDi_r2_v1.2.,2013-09-12 20:56:00,
2013-09-12 17:01:00,80.9,73.0,29.68,West,260,0.0,0.0,77,0.00,,,0.00,100,HR-IXPWINDi_r2_v1.2.,2013-09-12 21:01:00,
2013-09-12 17:07:00,80.9,73.0,29.67,West,260,0.0,0.0,77,0.00,,,0.00,72,HR-IXPWINDi_r2_v1.2.,2013-09-12 21:07:00,
2013-09-12 17:12:00,80.9,72.6,29.67,West,260,0.0,0.0,76,0.00,,,0.00,67,HR-IXPWINDi_r2_v1.2.,2013-09-12 21:12:00,
2013-09-12 17:17:00,80.9,72.6,29.67,West,263,0.0,0.0,76,0.00,,,0.00,100,HR-IXPWINDi_r2_v1.2.,2013-09-12 21:17:00,
2013-09-12 17:22:00,81.1,73.2,29.67,West,263,0.0,0.0,77,0.00,,,0.00,23,HR-IXPWINDi_r2_v1.2.,2013-09-12 21:22:00,
2013-09-12 17:27:00,80.9,73.3,29.67,West,263,0.0,0.0,78,0.00,,,0.00,11,HR-IXPWINDi_r2_v1.2.,2013-09-12 21:27:00,
2013-09-12 17:32:00,80.5,73.0,29.67,West,263,0.0,0.0,78,0.00,,,0.00,12,HR-IXPWINDi_r2_v1.2.,2013-09-12 21:32:00,
2013-09-12 17:37:00,80.3,72.8,29.66,West,261,0.0,1.0,78,0.00,,,0.00,14,HR-IXPWINDi_r2_v1.2.,2013-09-12 21:37:00,
2013-09-12 17:43:00,79.9,72.8,29.66,West,261,0.0,1.0,79,0.00,,,0.00,9,HR-IXPWINDi_r2_v1.2.,2013-09-12 21:43:00,
2013-09-12 17:48:00,79.6,72.1,29.66,West,261,0.0,0.0,78,0.00,,,0.00,0,HR-IXPWINDi_r2_v1.2.,2013-09-12 21:48:00,
2013-09-12 17:53:00,79.0,71.1,29.66,SW,230,0.0,3.0,77,0.00,,,0.00,0,HR-IXPWINDi_r2_v1.2.,2013-09-12 21:53:00,
2013-09-12 17:58:00,78.5,71.0,29.66,SSE,162,1.0,3.0,78,0.00,,,0.00,5,HR-IXPWINDi_r2_v1.2.,2013-09-12 21:58:00,
2013-09-12 18:03:00,77.9,71.2,29.66,SSE,162,0.0,3.0,80,0.00,,,0.00,0,HR-IXPWINDi_r2_v1.2.,2013-09-12 22:03:00,
2013-09-12 18:08:00,77.2,71.2,29.66,NNE,18,0.0,3.0,82,0.00,,,0.00,0,HR-IXPWINDi_r2_v1.2.,2013-09-12 22:08:00,
2013-09-12 18:14:00,76.5,70.9,29.66,East,90,2.0,4.0,83,0.00,,,0.00,0,HR-IXPWINDi_r2_v1.2.,2013-09-12 22:14:00,
2013-09-12 18:19:00,75.3,70.1,29.66,East,92,1.0,4.0,84,0.00,,,0.00,0,HR-IXPWINDi_r2_v1.2.,2013-09-12 22:19:00,
2013-09-12 18:24:00,73.3,68.8,29.69,SSE,150,2.0,3.0,86,0.00,,,0.00,0,HR-IXPWINDi_r2_v1.2.,2013-09-12 22:24:00,
2013-09-12 18:29:00,72.3,68.5,29.69,WSW,257,0.0,3.0,88,0.00,,,0.00,0,HR-IXPWINDi_r2_v1.2.,2013-09-12 22:29:00,
2013-09-12 18:35:00,71.8,68.3,29.66,WSW,251,0.0,2.0,89,0.00,,,0.00,0,HR-IXPWINDi_r2_v1.2.,2013-09-12 22:35:00,
2013-09-12 18:40:00,71.8,68.6,29.66,WSW,250,0.0,0.0,90,0.00,,,0.00,0,HR-IXPWINDi_r2_v1.2.,2013-09-12 22:40:00,
2013-09-12 18:45:00,71.6,68.4,29.66,WSW,248,0.0,2.0,90,0.00,,,0.00,0,HR-IXPWINDi_r2_v1.2.,2013-09-12 22:45:00,
2013-09-12 18:50:00,71.5,68.7,29.65,WSW,248,0.0,2.0,91,0.00,,,0.00,0,HR-IXPWINDi_r2_v1.2.,2013-09-12 22:50:00,
2013-09-12 18:55:00,71.5,68.7,29.65,WSW,250,0.0,0.0,91,0.00,,,0.00,0,HR-IXPWINDi_r2_v1.2.,2013-09-12 22:55:00,
2013-09-12 19:00:00,71.3,68.8,29.65,WSW,250,0.0,0.0,92,0.00,,,0.00,0,HR-IXPWINDi_r2_v1.2.,2013-09-12 23:00:00,
2013-09-12 19:05:00,71.5,69.0,29.65,WSW,250,0.0,0.0,92,0.00,,,0.00,0,HR-IXPWINDi_r2_v1.2.,2013-09-12 23:05:00,
2013-09-12 19:11:00,71.5,69.0,29.65,WSW,247,0.0,0.0,92,0.00,,,0.00,0,HR-IXPWINDi_r2_v1.2.,2013-09-12 23:11:00,
2013-09-12 19:16:00,71.6,69.1,29.65,WSW,248,0.0,1.0,92,0.00,,,0.00,0,HR-IXPWINDi_r2_v1.2.,2013-09-12 23:16:00,
2013-09-12 19:21:00,71.6,69.1,29.66,WSW,247,1.0,3.0,92,0.00,,,0.00,0,HR-IXPWINDi_r2_v1.2.,2013-09-12 23:21:00,
2013-09-12 19:26:00,71.6,69.4,29.66,East,95,6.0,6.0,93,0.00,,,0.00,0,HR-IXPWINDi_r2_v1.2.,2013-09-12 23:26:00,
2013-09-12 19:31:00,71.6,69.4,29.66,NE,54,5.0,6.0,93,0.00,,,0.00,0,HR-IXPWINDi_r2_v1.2.,2013-09-12 23:31:00,
2013-09-12 19:37:00,71.5,69.3,29.70,NE,55,0.0,6.0,93,0.00,,,0.00,0,HR-IXPWINDi_r2_v1.2.,2013-09-12 23:37:00,
2013-09-12 19:42:00,71.3,69.1,29.70,East,90,1.0,6.0,93,0.00,,,0.00,0,HR-IXPWINDi_r2_v1.2.,2013-09-12 23:42:00,
2013-09-12 19:47:00,71.3,69.1,29.70,East,89,0.0,5.0,93,0.00,,,0.00,0,HR-IXPWINDi_r2_v1.2.,2013-09-12 23:47:00,
2013-09-12 19:52:00,71.1,68.9,29.71,East,88,0.0,2.0,93,0.00,,,0.00,0,HR-IXPWINDi_r2_v1.2.,2013-09-12 23:52:00,
2013-09-12 19:57:00,70.9,68.7,29.71,East,90,0.0,3.0,93,0.00,,,0.00,0,HR-IXPWINDi_r2_v1.2.,2013-09-12 23:57:00,
2013-09-12 20:03:00,70.9,68.7,29.71,East,89,0.0,3.0,93,0.00,,,0.00,0,HR-IXPWINDi_r2_v1.2.,2013-09-13 00:03:00,
2013-09-12 20:08:00,70.8,68.6,29.70,East,89,0.0,2.0,93,0.00,,,0.00,0,HR-IXPWINDi_r2_v1.2.,2013-09-13 00:08:00,
2013-09-12 20:13:00,71.1,69.2,29.70,East,89,0.0,2.0,94,0.00,,,0.00,0,HR-IXPWINDi_r2_v1.2.,2013-09-13 00:13:00,
2013-09-12 20:18:00,71.1,69.2,29.70,East,90,0.0,0.0,94,0.00,,,0.00,0,HR-IXPWINDi_r2_v1.2.,2013-09-13 00:18:00,
2013-09-12 20:23:00,71.1,69.2,29.68,East,89,0.0,0.0,94,0.00,,,0.00,0,HR-IXPWINDi_r2_v1.2.,2013-09-13 00:23:00,
2013-09-12 20:28:00,71.5,69.6,29.68,East,88,0.0,0.0,94,0.00,,,0.00,0,HR-IXPWINDi_r2_v1.2.,2013-09-13 00:28:00,
2013-09-12 20:34:00,71.3,69.4,29.68,East,88,0.0,0.0,94,0.00,,,0.00,0,HR-IXPWINDi_r2_v1.2.,2013-09-13 00:34:00,
2013-09-12 20:39:00,71.3,69.4,29.67,East,90,0.0,0.0,94,0.00,,,0.00,0,HR-IXPWINDi_r2_v1.2.,2013-09-13 00:39:00,
2013-09-12 20:44:00,71.3,69.4,29.67,East,88,0.0,0.0,94,0.00,,,0.00,0,HR-IXPWINDi_r2_v1.2.,2013-09-13 00:44:00,
2013-09-12 20:49:00,71.3,69.4,29.67,East,89,0.0,0.0,94,0.00,,,0.00,0,HR-IXPWINDi_r2_v1.2.,2013-09-13 00:49:00,
2013-09-12 20:54:00,71.3,69.4,29.67,East,90,0.0,0.0,94,0.00,,,0.00,0,HR-IXPWINDi_r2_v1.2.,2013-09-13 00:54:00,
2013-09-12 20:59:00,71.3,69.4,29.67,East,89,0.0,0.0,94,0.00,,,0.00,0,HR-IXPWINDi_r2_v1.2.,2013-09-13 00:59:00,
2013-09-12 21:05:00,71.3,69.4,29.69,East,89,0.0,0.0,94,0.00,,,0.00,0,HR-IXPWINDi_r2_v1.2.,2013-09-13 01:05:00,
2013-09-12 21:10:00,71.3,69.4,29.69,East,89,0.0,0.0,94,0.00,,,0.00,0,HR-IXPWINDi_r2_v1.2.,2013-09-13 01:10:00,
2013-09-12 21:15:00,71.3,69.4,29.69,East,88,0.0,0.0,94,0.00,,,0.00,0,HR-IXPWINDi_r2_v1.2.,2013-09-13 01:15:00,
2013-09-12 21:20:00,71.1,69.2,29.67,East,88,0.0,0.0,94,0.00,,,0.00,0,HR-IXPWINDi_r2_v1.2.,2013-09-13 01:20:00,
2013-09-12 21:25:00,71.1,69.2,29.67,East,89,0.0,0.0,94,0.00,,,0.00,0,HR-IXPWINDi_r2_v1.2.,2013-09-13 01:25:00,
2013-09-12 21:31:00,71.1,69.2,29.67,East,88,0.0,0.0,94,0.00,,,0.00,0,HR-IXPWINDi_r2_v1.2.,2013-09-13 01:31:00,
2013-09-12 21:36:00,71.3,69.4,29.67,East,89,0.0,0.0,94,0.00,,,0.00,0,HR-IXPWINDi_r2_v1.2.,2013-09-13 01:36:00,
2013-09-12 21:41:00,71.3,69.4,29.67,East,89,0.0,0.0,94,0.00,,,0.00,0,HR-IXPWINDi_r2_v1.2.,2013-09-13 01:41:00,
2013-09-12 21:46:00,71.3,69.4,29.67,East,88,0.0,0.0,94,0.00,,,0.00,0,HR-IXPWINDi_r2_v1.2.,2013-09-13 01:46:00,
2013-09-12 21:52:00,71.3,69.4,29.68,East,88,0.0,0.0,94,0.00,,,0.00,0,HR-IXPWINDi_r2_v1.2.,2013-09-13 01:52:00,
2013-09-12 21:57:00,71.3,69.4,29.68,East,89,0.0,0.0,94,0.00,,,0.00,0,HR-IXPWINDi_r2_v1.2.,2013-09-13 01:57:00,
2013-09-12 22:02:00,71.3,69.4,29.68,East,90,0.0,0.0,94,0.00,,,0.00,0,HR-IXPWINDi_r2_v1.2.,2013-09-13 02:02:00,
2013-09-12 22:07:00,71.1,69.2,29.67,East,88,0.0,0.0,94,0.00,,,0.00,0,HR-IXPWINDi_r2_v1.2.,2013-09-13 02:07:00,
2013-09-12 22:12:00,71.3,69.4,29.67,East,89,0.0,0.0,94,0.00,,,0.00,0,HR-IXPWINDi_r2_v1.2.,2013-09-13 02:12:00,
2013-09-12 22:17:00,71.3,69.4,29.67,East,88,0.0,0.0,94,0.00,,,0.00,0,HR-IXPWINDi_r2_v1.2.,2013-09-13 02:17:00,
2013-09-12 22:22:00,71.3,69.4,29.67,East,90,0.0,0.0,94,0.00,,,0.00,0,HR-IXPWINDi_r2_v1.2.,2013-09-13 02:22:00,
2013-09-12 22:27:00,71.1,69.2,29.67,East,88,0.0,0.0,94,0.00,,,0.00,0,HR-IXPWINDi_r2_v1.2.,2013-09-13 02:27:00,
2013-09-12 22:32:00,71.1,69.2,29.67,East,89,0.0,0.0,94,0.00,,,0.00,0,HR-IXPWINDi_r2_v1.2.,2013-09-13 02:32:00,
2013-09-12 22:37:00,70.9,69.0,29.66,East,88,0.0,0.0,94,0.00,,,0.00,0,HR-IXPWINDi_r2_v1.2.,2013-09-13 02:37:00,
2013-09-12 22:42:00,70.9,69.0,29.66,East,89,0.0,0.0,94,0.00,,,0.00,0,HR-IXPWINDi_r2_v1.2.,2013-09-13 02:42:00,
2013-09-12 22:47:00,71.1,69.2,29.66,East,90,0.0,0.0,94,0.00,,,0.00,0,HR-IXPWINDi_r2_v1.2.,2013-09-13 02:47:00,
2013-09-12 22:52:00,71.1,69.5,29.66,East,89,0.0,0.0,95,0.00,,,0.00,0,HR-IXPWINDi_r2_v1.2.,2013-09-13 02:52:00,
2013-09-12 22:58:00,71.3,69.7,29.66,East,88,0.0,0.0,95,0.00,,,0.00,0,HR-IXPWINDi_r2_v1.2.,2013-09-13 02:58:00,
2013-09-12 23:03:00,71.3,69.7,29.66,East,89,0.0,0.0,95,0.00,,,0.00,0,HR-IXPWINDi_r2_v1.2.,2013-09-13 03:03:00,
2013-09-12 23:08:00,71.6,70.0,29.66,East,90,0.0,0.0,95,0.00,,,0.00,0,HR-IXPWINDi_r2_v1.2.,2013-09-13 03:08:00,
2013-09-12 23:13:00,71.6,70.0,29.66,East,90,0.0,0.0,95,0.00,,,0.00,0,HR-IXPWINDi_r2_v1.2.,2013-09-13 03:13:00,
2013-09-12 23:18:00,71.6,70.0,29.66,East,88,0.0,0.0,95,0.00,,,0.00,0,HR-IXPWINDi_r2_v1.2.,2013-09-13 03:18:00,
2013-09-12 23:23:00,71.6,70.0,29.65,East,90,0.0,0.0,95,0.00,,,0.00,0,HR-IXPWINDi_r2_v1.2.,2013-09-13 03:23:00,
2013-09-12 23:29:00,71.6,70.0,29.65,East,88,0.0,0.0,95,0.00,,,0.00,0,HR-IXPWINDi_r2_v1.2.,2013-09-13 03:29:00,
2013-09-12 23:34:00,71.8,70.2,29.65,East,89,0.0,0.0,95,0.00,,,0.00,0,HR-IXPWINDi_r2_v1.2.,2013-09-13 03:34:00,
2013-09-12 23:39:00,71.6,70.0,29.65,East,89,0.0,0.0,95,0.00,,,0.00,0,HR-IXPWINDi_r2_v1.2.,2013-09-13 03:39:00,
2013-09-12 23:45:00,71.6,70.0,29.65,East,89,0.0,0.0,95,0.00,,,0.00,0,HR-IXPWINDi_r2_v1.2.,2013-09-13 03:45:00,
2013-09-12 23:50:00,71.6,70.0,29.66,East,89,0.0,0.0,95,0.00,,,0.00,0,HR-IXPWINDi_r2_v1.2.,2013-09-13 03:50:00,
2013-09-12 23:55:00,71.8,70.2,29.66,East,90,0.0,0.0,95,0.00,,,0.00,0,HR-IXPWINDi_r2_v1.2.,2013-09-13 03:55:00,